Terminal Aerodrome Forecast
Issued by NWS

Home | Current Version | Previous Version | Text Only | Print | Product List | Glossary On
Versions: 1 2 3 4 5 6 7 8 9 10 11 12 13 14 15 16 17 18 19 20
000
FTUS46 KSTO 010700 AAA
TAFSAC
TAF AMD
KSAC 010703Z 0107/0206 11004KT 4SM HZ SKC
      TEMPO 0110/0112 2SM BR
     FM011200 VRB03KT 2SM BR BKN250
      TEMPO 0114/0118 1/4SM FG OVC001
     FM012000 VRB03KT 6SM HZ BKN200=

USA.gov is the U.S. government's official web portal to all federal, state and local government web resources and services.